sensor_id;sensor_type;location;lat;lon;timestamp;pressure;altitude;pressure_sealevel;temperature;humidity
8416;BME280;4245;42.120;24.732;2023-02-15T00:01:30;100532.66;;;5.53;70.59
8416;BME280;4245;42.120;24.732;2023-02-15T00:03:57;100540.09;;;5.68;69.73
8416;BME280;4245;42.120;24.732;2023-02-15T00:06:24;100535.75;;;5.67;70.09
8416;BME280;4245;42.120;24.732;2023-02-15T00:08:51;100531.88;;;5.79;69.53
8416;BME280;4245;42.120;24.732;2023-02-15T00:11:18;100538.34;;;5.68;69.88
8416;BME280;4245;42.120;24.732;2023-02-15T00:14:05;100540.06;;;5.69;70.06
8416;BME280;4245;42.120;24.732;2023-02-15T00:16:33;100538.94;;;5.49;70.82
8416;BME280;4245;42.120;24.732;2023-02-15T00:19:00;100541.34;;;5.56;70.40
8416;BME280;4245;42.120;24.732;2023-02-15T00:21:28;100550.66;;;5.39;71.20
8416;BME280;4245;42.120;24.732;2023-02-15T00:23:55;100548.06;;;5.37;71.53
8416;BME280;4245;42.120;24.732;2023-02-15T00:26:22;100549.75;;;5.40;70.99
8416;BME280;4245;42.120;24.732;2023-02-15T00:28:49;100550.66;;;5.39;71.09
8416;BME280;4245;42.120;24.732;2023-02-15T00:31:16;100553.56;;;5.28;71.62
8416;BME280;4245;42.120;24.732;2023-02-15T00:33:44;100554.38;;;5.32;70.87
8416;BME280;4245;42.120;24.732;2023-02-15T00:36:11;100542.66;;;5.42;70.86
8416;BME280;4245;42.120;24.732;2023-02-15T00:38:38;100546.50;;;5.30;70.79
8416;BME280;4245;42.120;24.732;2023-02-15T00:41:07;100546.59;;;5.27;71.76
8416;BME280;4245;42.120;24.732;2023-02-15T00:43:35;100551.06;;;5.23;72.00
8416;BME280;4245;42.120;24.732;2023-02-15T00:46:02;100557.94;;;5.29;71.68
8416;BME280;4245;42.120;24.732;2023-02-15T00:48:29;100550.34;;;5.18;72.19
8416;BME280;4245;42.120;24.732;2023-02-15T00:50:59;100557.91;;;5.31;72.01
8416;BME280;4245;42.120;24.732;2023-02-15T00:53:27;100552.69;;;5.29;71.97
8416;BME280;4245;42.120;24.732;2023-02-15T00:55:54;100542.13;;;5.29;72.20
8416;BME280;4245;42.120;24.732;2023-02-15T00:58:21;100550.00;;;5.31;71.96
8416;BME280;4245;42.120;24.732;2023-02-15T01:00:48;100547.41;;;5.29;72.15
8416;BME280;4245;42.120;24.732;2023-02-15T01:03:16;100545.63;;;5.30;72.08
8416;BME280;4245;42.120;24.732;2023-02-15T01:05:44;100545.66;;;5.28;72.19
8416;BME280;4245;42.120;24.732;2023-02-15T01:08:12;100546.53;;;5.29;72.19
8416;BME280;4245;42.120;24.732;2023-02-15T01:10:39;100539.50;;;5.29;72.08
8416;BME280;4245;42.120;24.732;2023-02-15T01:13:06;100568.59;;;5.26;72.53
8416;BME280;4245;42.120;24.732;2023-02-15T01:15:34;100548.31;;;5.28;72.27
8416;BME280;4245;42.120;24.732;2023-02-15T01:18:01;100543.09;;;5.27;72.45
8416;BME280;4245;42.120;24.732;2023-02-15T01:20:29;100524.56;;;5.30;71.67
8416;BME280;4245;42.120;24.732;2023-02-15T01:22:56;100534.09;;;5.34;71.66
8416;BME280;4245;42.120;24.732;2023-02-15T01:25:25;100521.00;;;5.32;71.62
8416;BME280;4245;42.120;24.732;2023-02-15T01:27:52;100522.81;;;5.30;71.80
8416;BME280;4245;42.120;24.732;2023-02-15T01:30:19;100516.50;;;5.36;71.75
8416;BME280;4245;42.120;24.732;2023-02-15T01:32:45;100525.34;;;5.33;71.86
8416;BME280;4245;42.120;24.732;2023-02-15T01:35:12;100512.97;;;5.37;71.74
8416;BME280;4245;42.120;24.732;2023-02-15T01:37:39;100518.28;;;5.34;72.11
8416;BME280;4245;42.120;24.732;2023-02-15T01:40:08;100520.13;;;5.32;72.27
8416;BME280;4245;42.120;24.732;2023-02-15T01:42:40;100510.13;;;5.43;71.44
8416;BME280;4245;42.120;24.732;2023-02-15T01:45:17;100520.84;;;5.37;71.91
8416;BME280;4245;42.120;24.732;2023-02-15T01:47:49;100517.94;;;5.46;71.21
8416;BME280;4245;42.120;24.732;2023-02-15T01:50:22;100525.25;;;5.36;71.77
8416;BME280;4245;42.120;24.732;2023-02-15T01:52:54;100524.41;;;5.36;71.71
8416;BME280;4245;42.120;24.732;2023-02-15T01:55:24;100526.28;;;5.31;72.37
8416;BME280;4245;42.120;24.732;2023-02-15T01:57:53;100532.94;;;5.44;71.50
8416;BME280;4245;42.120;24.732;2023-02-15T02:00:20;100531.34;;;5.38;71.89
8416;BME280;4245;42.120;24.732;2023-02-15T02:02:50;100533.94;;;5.40;71.86
8416;BME280;4245;42.120;24.732;2023-02-15T02:05:19;100530.41;;;5.41;71.83
8416;BME280;4245;42.120;24.732;2023-02-15T02:07:46;100542.97;;;5.31;72.04
8416;BME280;4245;42.120;24.732;2023-02-15T02:10:17;100544.63;;;5.34;72.57
8416;BME280;4245;42.120;24.732;2023-02-15T02:12:46;100529.81;;;5.31;72.22
8416;BME280;4245;42.120;24.732;2023-02-15T02:15:16;100542.06;;;5.32;72.49
8416;BME280;4245;42.120;24.732;2023-02-15T02:17:59;100541.97;;;5.35;71.93
8416;BME280;4245;42.120;24.732;2023-02-15T02:21:07;100557.66;;;5.40;71.44
8416;BME280;4245;42.120;24.732;2023-02-15T02:24:01;100553.41;;;5.34;71.87
8416;BME280;4245;42.120;24.732;2023-02-15T02:27:10;100551.25;;;5.48;71.17
8416;BME280;4245;42.120;24.732;2023-02-15T02:35:56;100560.56;;;5.31;71.60
8416;BME280;4245;42.120;24.732;2023-02-15T02:38:29;100550.16;;;5.26;72.13
8416;BME280;4245;42.120;24.732;2023-02-15T02:41:07;100557.75;;;5.37;71.56
8416;BME280;4245;42.120;24.732;2023-02-15T02:43:42;100548.38;;;5.27;72.04
8416;BME280;4245;42.120;24.732;2023-02-15T02:46:17;100558.94;;;5.25;71.75
8416;BME280;4245;42.120;24.732;2023-02-15T02:48:48;100560.66;;;5.28;71.65
8416;BME280;4245;42.120;24.732;2023-02-15T02:51:15;100559.97;;;5.19;72.33
8416;BME280;4245;42.120;24.732;2023-02-15T02:53:48;100554.06;;;5.11;73.11
8416;BME280;4245;42.120;24.732;2023-02-15T02:56:21;100560.09;;;5.15;72.71
8416;BME280;4245;42.120;24.732;2023-02-15T02:58:52;100565.88;;;4.97;73.80
8416;BME280;4245;42.120;24.732;2023-02-15T03:01:27;100563.69;;;5.12;73.61
8416;BME280;4245;42.120;24.732;2023-02-15T03:03:59;100562.09;;;5.07;73.75
8416;BME280;4245;42.120;24.732;2023-02-15T03:06:31;100556.84;;;5.05;74.51
8416;BME280;4245;42.120;24.732;2023-02-15T03:09:06;100569.22;;;5.03;74.19
8416;BME280;4245;42.120;24.732;2023-02-15T03:11:41;100564.97;;;4.98;74.87
8416;BME280;4245;42.120;24.732;2023-02-15T03:14:09;100572.66;;;5.05;74.97
8416;BME280;4245;42.120;24.732;2023-02-15T03:16:37;100573.78;;;4.97;75.88
8416;BME280;4245;42.120;24.732;2023-02-15T03:19:09;100572.25;;;5.20;74.68
8416;BME280;4245;42.120;24.732;2023-02-15T03:21:38;100575.38;;;5.02;75.58
8416;BME280;4245;42.120;24.732;2023-02-15T03:24:10;100576.44;;;4.95;75.95
8416;BME280;4245;42.120;24.732;2023-02-15T03:26:42;100572.22;;;5.22;74.24
8416;BME280;4245;42.120;24.732;2023-02-15T03:29:10;100572.28;;;5.19;74.05
8416;BME280;4245;42.120;24.732;2023-02-15T03:31:40;100565.41;;;5.13;74.36
8416;BME280;4245;42.120;24.732;2023-02-15T03:34:12;100573.44;;;5.09;74.16
8416;BME280;4245;42.120;24.732;2023-02-15T03:36:44;100565.75;;;5.01;74.14
8416;BME280;4245;42.120;24.732;2023-02-15T03:39:18;100569.28;;;5.00;74.29
8416;BME280;4245;42.120;24.732;2023-02-15T03:41:53;100567.53;;;5.01;74.06
8416;BME280;4245;42.120;24.732;2023-02-15T03:44:27;100569.53;;;4.91;74.76
8416;BME280;4245;42.120;24.732;2023-02-15T03:47:00;100570.94;;;5.04;74.35
8416;BME280;4245;42.120;24.732;2023-02-15T03:49:36;100570.66;;;5.13;73.39
8416;BME280;4245;42.120;24.732;2023-02-15T03:52:06;100584.19;;;5.01;73.96
8416;BME280;4245;42.120;24.732;2023-02-15T03:54:34;100576.44;;;4.95;74.55
8416;BME280;4245;42.120;24.732;2023-02-15T03:57:18;100582.31;;;5.05;73.96
8416;BME280;4245;42.120;24.732;2023-02-15T04:00:06;100590.44;;;4.97;73.77
8416;BME280;4245;42.120;24.732;2023-02-15T04:03:22;100591.22;;;5.01;74.13
8416;BME280;4245;42.120;24.732;2023-02-15T04:05:54;100588.56;;;5.02;73.47
8416;BME280;4245;42.120;24.732;2023-02-15T04:08:20;100591.59;;;4.87;74.54
8416;BME280;4245;42.120;24.732;2023-02-15T04:11:07;100595.31;;;4.78;75.07
8416;BME280;4245;42.120;24.732;2023-02-15T04:13:33;100591.13;;;4.70;75.93
8416;BME280;4245;42.120;24.732;2023-02-15T04:16:00;100594.34;;;4.82;74.92
8416;BME280;4245;42.120;24.732;2023-02-15T04:18:29;100585.88;;;4.70;75.88
8416;BME280;4245;42.120;24.732;2023-02-15T04:21:15;100588.72;;;4.62;76.00
8416;BME280;4245;42.120;24.732;2023-02-15T04:23:59;100589.19;;;4.78;75.08
8416;BME280;4245;42.120;24.732;2023-02-15T04:26:44;100592.09;;;4.67;75.05
8416;BME280;4245;42.120;24.732;2023-02-15T04:29:11;100586.34;;;4.52;75.92
8416;BME280;4245;42.120;24.732;2023-02-15T04:31:38;100600.56;;;4.45;75.91
8416;BME280;4245;42.120;24.732;2023-02-15T04:34:04;100607.94;;;4.30;77.50
8416;BME280;4245;42.120;24.732;2023-02-15T04:36:33;100605.88;;;4.42;76.65
8416;BME280;4245;42.120;24.732;2023-02-15T04:38:59;100611.09;;;4.45;76.67
8416;BME280;4245;42.120;24.732;2023-02-15T04:41:26;100611.31;;;4.35;77.83
8416;BME280;4245;42.120;24.732;2023-02-15T04:43:53;100613.31;;;4.24;77.70
8416;BME280;4245;42.120;24.732;2023-02-15T04:46:20;100615.88;;;4.27;78.12
8416;BME280;4245;42.120;24.732;2023-02-15T04:48:47;100614.09;;;4.28;77.71
8416;BME280;4245;42.120;24.732;2023-02-15T04:51:14;100613.06;;;4.35;77.43
8416;BME280;4245;42.120;24.732;2023-02-15T04:53:42;100625.41;;;4.31;77.92
8416;BME280;4245;42.120;24.732;2023-02-15T04:56:09;100625.63;;;4.22;77.99
8416;BME280;4245;42.120;24.732;2023-02-15T04:58:35;100626.38;;;4.29;78.58
8416;BME280;4245;42.120;24.732;2023-02-15T05:01:06;100621.09;;;4.29;77.91
8416;BME280;4245;42.120;24.732;2023-02-15T05:03:33;100636.84;;;4.30;78.66
8416;BME280;4245;42.120;24.732;2023-02-15T05:06:00;100646.22;;;4.42;77.51
8416;BME280;4245;42.120;24.732;2023-02-15T05:08:27;100640.81;;;4.48;77.44
8416;BME280;4245;42.120;24.732;2023-02-15T05:10:55;100642.72;;;4.42;77.95
8416;BME280;4245;42.120;24.732;2023-02-15T05:13:24;100647.75;;;4.51;77.46
8416;BME280;4245;42.120;24.732;2023-02-15T05:15:52;100656.38;;;4.57;76.79
8416;BME280;4245;42.120;24.732;2023-02-15T05:18:20;100652.22;;;4.47;77.19
8416;BME280;4245;42.120;24.732;2023-02-15T05:20:47;100660.22;;;4.43;77.41
8416;BME280;4245;42.120;24.732;2023-02-15T05:23:14;100658.44;;;4.45;77.63
8416;BME280;4245;42.120;24.732;2023-02-15T05:25:46;100666.13;;;4.54;78.50
8416;BME280;4245;42.120;24.732;2023-02-15T05:28:32;100659.75;;;4.64;77.13
8416;BME280;4245;42.120;24.732;2023-02-15T05:31:06;100666.13;;;4.54;77.21
8416;BME280;4245;42.120;24.732;2023-02-15T05:33:34;100668.69;;;4.55;77.72
8416;BME280;4245;42.120;24.732;2023-02-15T05:36:01;100663.44;;;4.55;78.47
8416;BME280;4245;42.120;24.732;2023-02-15T05:38:28;100679.72;;;4.72;77.95
8416;BME280;4245;42.120;24.732;2023-02-15T05:40:55;100677.94;;;4.73;78.01
8416;BME280;4245;42.120;24.732;2023-02-15T05:43:23;100680.63;;;4.70;78.62
8416;BME280;4245;42.120;24.732;2023-02-15T05:45:52;100676.00;;;4.79;77.63
8416;BME280;4245;42.120;24.732;2023-02-15T05:48:21;100669.34;;;5.00;76.50
8416;BME280;4245;42.120;24.732;2023-02-15T05:50:57;100681.53;;;5.04;76.08
8416;BME280;4245;42.120;24.732;2023-02-15T05:53:23;100685.50;;;5.22;75.49
8416;BME280;4245;42.120;24.732;2023-02-15T05:55:50;100684.09;;;5.07;76.40
8416;BME280;4245;42.120;24.732;2023-02-15T05:58:17;100685.63;;;5.16;76.22
8416;BME280;4245;42.120;24.732;2023-02-15T06:00:45;100702.81;;;5.31;75.03
8416;BME280;4245;42.120;24.732;2023-02-15T06:03:13;100704.59;;;5.30;75.46
8416;BME280;4245;42.120;24.732;2023-02-15T06:05:40;100699.19;;;5.35;75.05
8416;BME280;4245;42.120;24.732;2023-02-15T06:08:07;100696.88;;;5.56;74.07
8416;BME280;4245;42.120;24.732;2023-02-15T06:10:33;100706.44;;;5.59;74.11
8416;BME280;4245;42.120;24.732;2023-02-15T06:13:00;100704.47;;;5.67;73.80
8416;BME280;4245;42.120;24.732;2023-02-15T06:15:27;100698.75;;;5.82;73.11
8416;BME280;4245;42.120;24.732;2023-02-15T06:17:54;100709.38;;;5.81;73.22
8416;BME280;4245;42.120;24.732;2023-02-15T06:20:22;100711.84;;;5.87;72.76
8416;BME280;4245;42.120;24.732;2023-02-15T06:22:49;100715.06;;;5.98;72.53
8416;BME280;4245;42.120;24.732;2023-02-15T06:25:16;100720.84;;;6.10;71.63
8416;BME280;4245;42.120;24.732;2023-02-15T06:27:43;100712.66;;;6.20;71.32
8416;BME280;4245;42.120;24.732;2023-02-15T06:30:11;100700.38;;;6.48;70.28
8416;BME280;4245;42.120;24.732;2023-02-15T06:32:38;100715.06;;;6.57;69.61
8416;BME280;4245;42.120;24.732;2023-02-15T06:35:06;100710.16;;;6.72;69.08
8416;BME280;4245;42.120;24.732;2023-02-15T06:37:34;100703.88;;;6.76;68.89
8416;BME280;4245;42.120;24.732;2023-02-15T06:40:01;100711.59;;;6.82;68.33
8416;BME280;4245;42.120;24.732;2023-02-15T06:42:29;100716.13;;;7.05;67.87
8416;BME280;4245;42.120;24.732;2023-02-15T06:44:56;100724.72;;;7.12;66.91
8416;BME280;4245;42.120;24.732;2023-02-15T06:47:24;100720.91;;;7.20;66.67
8416;BME280;4245;42.120;24.732;2023-02-15T06:49:51;100715.69;;;7.19;66.24
8416;BME280;4245;42.120;24.732;2023-02-15T06:52:17;100715.00;;;7.38;65.36
8416;BME280;4245;42.120;24.732;2023-02-15T06:54:46;100720.47;;;7.59;63.62
8416;BME280;4245;42.120;24.732;2023-02-15T06:57:12;100723.13;;;7.59;64.02
8416;BME280;4245;42.120;24.732;2023-02-15T06:59:39;100722.59;;;7.74;63.54
8416;BME280;4245;42.120;24.732;2023-02-15T07:02:06;100725.03;;;8.03;61.78
8416;BME280;4245;42.120;24.732;2023-02-15T07:04:32;100719.97;;;7.97;62.26
8416;BME280;4245;42.120;24.732;2023-02-15T07:06:59;100727.78;;;8.00;61.90
8416;BME280;4245;42.120;24.732;2023-02-15T07:09:26;100720.75;;;7.99;61.09
8416;BME280;4245;42.120;24.732;2023-02-15T07:11:54;100711.81;;;8.03;62.03
8416;BME280;4245;42.120;24.732;2023-02-15T07:14:39;100724.25;;;8.48;60.21
8416;BME280;4245;42.120;24.732;2023-02-15T07:17:06;100721.47;;;8.27;60.26
8416;BME280;4245;42.120;24.732;2023-02-15T07:19:32;100708.50;;;8.20;60.34
8416;BME280;4245;42.120;24.732;2023-02-15T07:21:59;100706.38;;;8.53;60.05
8416;BME280;4245;42.120;24.732;2023-02-15T07:24:26;100712.63;;;8.52;58.72
8416;BME280;4245;42.120;24.732;2023-02-15T07:26:54;100715.56;;;8.44;59.61
8416;BME280;4245;42.120;24.732;2023-02-15T07:29:22;100710.63;;;8.57;60.19
8416;BME280;4245;42.120;24.732;2023-02-15T07:31:49;100711.00;;;8.48;60.33
8416;BME280;4245;42.120;24.732;2023-02-15T07:34:16;100704.25;;;8.84;60.71
8416;BME280;4245;42.120;24.732;2023-02-15T07:36:43;100705.38;;;9.21;57.84
8416;BME280;4245;42.120;24.732;2023-02-15T07:39:11;100697.25;;;9.66;55.93
8416;BME280;4245;42.120;24.732;2023-02-15T07:41:37;100705.47;;;9.80;56.11
8416;BME280;4245;42.120;24.732;2023-02-15T07:46:51;100713.88;;;10.10;54.03
8416;BME280;4245;42.120;24.732;2023-02-15T07:49:18;100711.91;;;10.33;53.16
8416;BME280;4245;42.120;24.732;2023-02-15T07:51:45;100719.97;;;10.69;52.10
8416;BME280;4245;42.120;24.732;2023-02-15T07:54:12;100712.75;;;10.71;51.11
8416;BME280;4245;42.120;24.732;2023-02-15T07:56:38;100717.44;;;10.66;51.33
8416;BME280;4245;42.120;24.732;2023-02-15T07:59:05;100715.56;;;10.68;50.92
8416;BME280;4245;42.120;24.732;2023-02-15T08:01:35;100718.25;;;10.50;51.26
8416;BME280;4245;42.120;24.732;2023-02-15T08:04:04;100727.34;;;10.25;51.67
8416;BME280;4245;42.120;24.732;2023-02-15T08:06:33;100716.78;;;10.24;52.41
8416;BME280;4245;42.120;24.732;2023-02-15T08:09:01;100730.22;;;10.39;51.75
8416;BME280;4245;42.120;24.732;2023-02-15T08:11:30;100708.25;;;10.55;51.61
8416;BME280;4245;42.120;24.732;2023-02-15T08:14:03;100715.59;;;10.50;51.22
8416;BME280;4245;42.120;24.732;2023-02-15T08:16:33;100700.56;;;10.49;51.45
8416;BME280;4245;42.120;24.732;2023-02-15T08:19:02;100704.13;;;10.66;50.70
8416;BME280;4245;42.120;24.732;2023-02-15T08:21:32;100715.09;;;10.96;50.06
8416;BME280;4245;42.120;24.732;2023-02-15T08:23:59;100709.38;;;11.22;49.18
8416;BME280;4245;42.120;24.732;2023-02-15T08:26:27;100711.25;;;11.55;48.33
8416;BME280;4245;42.120;24.732;2023-02-15T08:28:54;100707.59;;;11.74;47.97
8416;BME280;4245;42.120;24.732;2023-02-15T08:31:21;100719.00;;;11.76;47.25
8416;BME280;4245;42.120;24.732;2023-02-15T08:33:49;100719.28;;;11.53;47.36
8416;BME280;4245;42.120;24.732;2023-02-15T08:36:18;100712.88;;;11.40;48.28
8416;BME280;4245;42.120;24.732;2023-02-15T08:38:46;100718.81;;;11.62;47.46
8416;BME280;4245;42.120;24.732;2023-02-15T08:41:15;100716.44;;;11.75;46.90
8416;BME280;4245;42.120;24.732;2023-02-15T08:43:45;100725.34;;;11.57;46.81
8416;BME280;4245;42.120;24.732;2023-02-15T08:46:13;100708.03;;;11.31;48.04
8416;BME280;4245;42.120;24.732;2023-02-15T08:48:41;100717.88;;;11.98;46.41
8416;BME280;4245;42.120;24.732;2023-02-15T08:51:09;100712.72;;;11.77;47.15
8416;BME280;4245;42.120;24.732;2023-02-15T08:53:37;100715.88;;;11.86;46.52
8416;BME280;4245;42.120;24.732;2023-02-15T08:56:06;100715.63;;;11.90;46.95
8416;BME280;4245;42.120;24.732;2023-02-15T08:58:46;100718.94;;;12.44;45.42
8416;BME280;4245;42.120;24.732;2023-02-15T09:01:14;100723.22;;;12.93;44.68
8416;BME280;4245;42.120;24.732;2023-02-15T09:03:43;100696.22;;;13.45;43.22
8416;BME280;4245;42.120;24.732;2023-02-15T09:06:10;100711.44;;;13.73;42.35
8416;BME280;4245;42.120;24.732;2023-02-15T09:08:37;100710.66;;;13.71;41.98
8416;BME280;4245;42.120;24.732;2023-02-15T09:11:08;100710.81;;;13.98;41.60
8416;BME280;4245;42.120;24.732;2023-02-15T09:13:35;100709.88;;;14.13;40.62
8416;BME280;4245;42.120;24.732;2023-02-15T09:16:05;100708.19;;;14.40;40.57
8416;BME280;4245;42.120;24.732;2023-02-15T09:18:34;100699.16;;;14.69;40.14
8416;BME280;4245;42.120;24.732;2023-02-15T09:21:07;100704.53;;;14.55;39.77
8416;BME280;4245;42.120;24.732;2023-02-15T09:23:34;100704.72;;;14.38;40.10
8416;BME280;4245;42.120;24.732;2023-02-15T09:26:07;100694.50;;;13.14;41.48
8416;BME280;4245;42.120;24.732;2023-02-15T09:28:35;100691.94;;;12.81;43.49
8416;BME280;4245;42.120;24.732;2023-02-15T09:31:09;100696.28;;;13.59;41.78
8416;BME280;4245;42.120;24.732;2023-02-15T09:33:38;100690.38;;;13.68;41.71
8416;BME280;4245;42.120;24.732;2023-02-15T09:36:12;100696.53;;;13.99;40.90
8416;BME280;4245;42.120;24.732;2023-02-15T09:38:40;100706.28;;;14.42;39.89
8416;BME280;4245;42.120;24.732;2023-02-15T09:41:21;100695.63;;;14.69;39.90
8416;BME280;4245;42.120;24.732;2023-02-15T09:44:01;100694.75;;;15.49;38.26
8416;BME280;4245;42.120;24.732;2023-02-15T09:46:47;100691.25;;;15.74;37.33
8416;BME280;4245;42.120;24.732;2023-02-15T09:49:25;100693.84;;;16.00;36.79
8416;BME280;4245;42.120;24.732;2023-02-15T09:52:31;100681.59;;;15.19;38.20
8416;BME280;4245;42.120;24.732;2023-02-15T09:55:11;100676.53;;;14.88;39.41
8416;BME280;4245;42.120;24.732;2023-02-15T09:57:49;100684.94;;;14.55;38.69
8416;BME280;4245;42.120;24.732;2023-02-15T10:00:26;100671.06;;;13.49;41.54
8416;BME280;4245;42.120;24.732;2023-02-15T10:03:09;100671.59;;;14.12;40.47
8416;BME280;4245;42.120;24.732;2023-02-15T10:05:48;100665.41;;;14.40;39.51
8416;BME280;4245;42.120;24.732;2023-02-15T10:11:44;100659.81;;;14.71;38.95
8416;BME280;4245;42.120;24.732;2023-02-15T10:14:37;100657.19;;;14.15;40.03
8416;BME280;4245;42.120;24.732;2023-02-15T10:17:18;100659.38;;;14.22;40.48
8416;BME280;4245;42.120;24.732;2023-02-15T10:19:57;100648.63;;;14.65;39.63
8416;BME280;4245;42.120;24.732;2023-02-15T10:22:36;100654.94;;;15.30;37.88
8416;BME280;4245;42.120;24.732;2023-02-15T10:25:22;100649.66;;;15.55;37.22
8416;BME280;4245;42.120;24.732;2023-02-15T10:27:51;100646.66;;;15.98;37.07
8416;BME280;4245;42.120;24.732;2023-02-15T10:30:25;100641.63;;;16.55;35.88
8416;BME280;4245;42.120;24.732;2023-02-15T10:33:00;100636.00;;;16.94;34.64
8416;BME280;4245;42.120;24.732;2023-02-15T10:35:34;100628.06;;;17.17;34.44
8416;BME280;4245;42.120;24.732;2023-02-15T10:38:16;100628.75;;;17.43;33.76
8416;BME280;4245;42.120;24.732;2023-02-15T10:40:53;100620.50;;;16.63;34.24
8416;BME280;4245;42.120;24.732;2023-02-15T10:43:34;100619.91;;;16.22;35.50
8416;BME280;4245;42.120;24.732;2023-02-15T10:46:11;100623.69;;;16.92;34.38
8416;BME280;4245;42.120;24.732;2023-02-15T10:49:09;100621.88;;;17.38;33.61
8416;BME280;4245;42.120;24.732;2023-02-15T10:51:45;100625.56;;;17.37;33.41
8416;BME280;4245;42.120;24.732;2023-02-15T10:54:24;100616.84;;;17.23;33.84
8416;BME280;4245;42.120;24.732;2023-02-15T10:57:01;100608.09;;;18.00;32.68
8416;BME280;4245;42.120;24.732;2023-02-15T10:59:42;100605.63;;;17.97;32.47
8416;BME280;4245;42.120;24.732;2023-02-15T11:02:20;100607.41;;;17.52;32.99
8416;BME280;4245;42.120;24.732;2023-02-15T11:04:59;100610.97;;;17.18;33.19
8416;BME280;4245;42.120;24.732;2023-02-15T11:07:34;100616.09;;;16.13;35.00
8416;BME280;4245;42.120;24.732;2023-02-15T11:10:14;100617.91;;;16.85;33.84
8416;BME280;4245;42.120;24.732;2023-02-15T11:12:49;100606.06;;;16.40;35.26
8416;BME280;4245;42.120;24.732;2023-02-15T11:15:19;100602.97;;;17.40;33.29
8416;BME280;4245;42.120;24.732;2023-02-15T11:17:55;100602.72;;;17.67;32.54
8416;BME280;4245;42.120;24.732;2023-02-15T11:20:27;100601.94;;;18.20;31.81
8416;BME280;4245;42.120;24.732;2023-02-15T11:22:55;100593.66;;;18.23;31.54
8416;BME280;4245;42.120;24.732;2023-02-15T11:25:25;100597.69;;;17.85;31.35
8416;BME280;4245;42.120;24.732;2023-02-15T11:27:53;100588.69;;;16.70;32.94
8416;BME280;4245;42.120;24.732;2023-02-15T11:30:23;100586.59;;;16.26;34.05
8416;BME280;4245;42.120;24.732;2023-02-15T11:32:55;100567.56;;;17.00;33.18
8416;BME280;4245;42.120;24.732;2023-02-15T11:35:27;100568.28;;;16.91;33.41
8416;BME280;4245;42.120;24.732;2023-02-15T11:37:58;100562.75;;;17.73;32.36
8416;BME280;4245;42.120;24.732;2023-02-15T11:40:30;100564.97;;;18.67;30.99
8416;BME280;4245;42.120;24.732;2023-02-15T11:43:00;100557.81;;;18.98;29.97
8416;BME280;4245;42.120;24.732;2023-02-15T11:45:29;100552.34;;;18.67;30.35
8416;BME280;4245;42.120;24.732;2023-02-15T11:47:58;100556.53;;;18.92;30.53
8416;BME280;4245;42.120;24.732;2023-02-15T11:50:27;100556.53;;;18.92;29.73
8416;BME280;4245;42.120;24.732;2023-02-15T11:52:58;100553.97;;;18.91;29.60
8416;BME280;4245;42.120;24.732;2023-02-15T11:55:27;100566.63;;;19.41;29.10
8416;BME280;4245;42.120;24.732;2023-02-15T11:57:58;100560.91;;;19.76;29.06
8416;BME280;4245;42.120;24.732;2023-02-15T12:00:32;100550.38;;;20.53;27.92
8416;BME280;4245;42.120;24.732;2023-02-15T12:03:09;100545.00;;;20.04;28.29
8416;BME280;4245;42.120;24.732;2023-02-15T12:05:40;100545.13;;;18.68;29.54
8416;BME280;4245;42.120;24.732;2023-02-15T12:08:17;100531.81;;;19.08;29.57
8416;BME280;4245;42.120;24.732;2023-02-15T12:10:55;100526.94;;;19.64;29.02
8416;BME280;4245;42.120;24.732;2023-02-15T12:13:23;100536.19;;;20.61;27.98
8416;BME280;4245;42.120;24.732;2023-02-15T12:15:52;100532.19;;;20.55;27.48
8416;BME280;4245;42.120;24.732;2023-02-15T12:18:32;100539.84;;;19.19;29.25
8416;BME280;4245;42.120;24.732;2023-02-15T12:21:02;100535.69;;;18.94;29.64
8416;BME280;4245;42.120;24.732;2023-02-15T12:23:32;100543.47;;;19.80;28.19
8416;BME280;4245;42.120;24.732;2023-02-15T12:25:59;100537.66;;;19.85;28.44
8416;BME280;4245;42.120;24.732;2023-02-15T12:28:31;100533.16;;;20.35;30.05
8416;BME280;4245;42.120;24.732;2023-02-15T12:31:00;100536.84;;;19.84;30.51
8416;BME280;4245;42.120;24.732;2023-02-15T12:33:32;100526.91;;;20.34;30.79
8416;BME280;4245;42.120;24.732;2023-02-15T12:36:09;100531.59;;;20.32;28.14
8416;BME280;4245;42.120;24.732;2023-02-15T12:38:38;100536.25;;;19.90;28.20
8416;BME280;4245;42.120;24.732;2023-02-15T12:41:22;100527.78;;;21.02;27.52
8416;BME280;4245;42.120;24.732;2023-02-15T12:44:03;100529.69;;;21.95;25.74
8416;BME280;4245;42.120;24.732;2023-02-15T12:46:30;100536.75;;;20.83;25.93
8416;BME280;4245;42.120;24.732;2023-02-15T12:49:17;100528.84;;;19.32;28.11
8416;BME280;4245;42.120;24.732;2023-02-15T12:51:46;100527.69;;;19.25;28.65
8416;BME280;4245;42.120;24.732;2023-02-15T12:54:35;100524.00;;;18.84;28.56
8416;BME280;4245;42.120;24.732;2023-02-15T12:57:26;100522.00;;;18.97;28.61
8416;BME280;4245;42.120;24.732;2023-02-15T12:59:55;100514.53;;;18.26;30.02
8416;BME280;4245;42.120;24.732;2023-02-15T13:02:28;100512.00;;;17.35;30.26
8416;BME280;4245;42.120;24.732;2023-02-15T13:05:05;100518.44;;;17.11;30.84
8416;BME280;4245;42.120;24.732;2023-02-15T13:07:34;100513.56;;;18.16;30.28
8416;BME280;4245;42.120;24.732;2023-02-15T13:10:01;100518.50;;;18.86;29.55
8416;BME280;4245;42.120;24.732;2023-02-15T13:12:29;100510.94;;;18.37;28.86
8416;BME280;4245;42.120;24.732;2023-02-15T13:14:57;100508.34;;;18.14;29.10
8416;BME280;4245;42.120;24.732;2023-02-15T13:17:29;100504.59;;;18.38;31.09
8416;BME280;4245;42.120;24.732;2023-02-15T13:20:03;100506.03;;;19.57;28.73
8416;BME280;4245;42.120;24.732;2023-02-15T13:22:36;100502.78;;;20.33;27.37
8416;BME280;4245;42.120;24.732;2023-02-15T13:25:12;100508.84;;;21.12;27.23
8416;BME280;4245;42.120;24.732;2023-02-15T13:27:43;100507.59;;;21.99;26.36
8416;BME280;4245;42.120;24.732;2023-02-15T13:30:19;100509.00;;;22.31;26.49
8416;BME280;4245;42.120;24.732;2023-02-15T13:32:49;100503.66;;;22.57;24.94
8416;BME280;4245;42.120;24.732;2023-02-15T13:35:18;100503.22;;;22.79;25.06
8416;BME280;4245;42.120;24.732;2023-02-15T13:37:56;100500.25;;;22.54;25.19
8416;BME280;4245;42.120;24.732;2023-02-15T13:40:32;100500.91;;;22.84;24.64
8416;BME280;4245;42.120;24.732;2023-02-15T13:43:04;100497.00;;;22.69;24.46